createdAt,value
2023-01-10T00:00:38.276Z,7.67
2023-01-10T00:03:10.594Z,8.40
2023-01-10T00:05:41.382Z,8.23
2023-01-10T00:08:13.933Z,8.57
2023-01-10T00:10:43.683Z,7.73
2023-01-10T00:13:24.318Z,7.80
2023-01-10T00:15:56.749Z,7.85
2023-01-10T00:18:26.547Z,8.07
2023-01-10T00:20:57.935Z,7.77
2023-01-10T00:23:28.570Z,7.43
2023-01-10T00:25:58.176Z,7.30
2023-01-10T00:28:28.585Z,8.28
2023-01-10T00:31:03.239Z,7.20
2023-01-10T00:33:33.864Z,7.27
2023-01-10T00:36:05.676Z,7.13
2023-01-10T00:38:37.003Z,7.43
2023-01-10T00:41:11.566Z,6.40
2023-01-10T00:43:59.865Z,6.62
2023-01-10T00:46:30.796Z,6.80
2023-01-10T00:49:00.728Z,8.03
2023-01-10T00:51:30.755Z,6.30
2023-01-10T00:54:00.677Z,7.27
2023-01-10T00:56:30.457Z,7.17
2023-01-10T00:59:00.545Z,6.42
2023-01-10T01:01:30.849Z,6.20
2023-01-10T01:04:01.077Z,6.30
2023-01-10T01:06:30.721Z,6.63
2023-01-10T01:09:00.487Z,6.07
2023-01-10T01:11:30.506Z,5.83
2023-01-10T01:14:00.460Z,5.10
2023-01-10T01:16:30.158Z,5.33
2023-01-10T01:19:00.009Z,6.27
2023-01-10T01:21:29.738Z,5.70
2023-01-10T01:23:59.588Z,5.27
2023-01-10T01:26:29.605Z,5.37
2023-01-10T01:28:59.393Z,4.87
2023-01-10T01:31:29.205Z,4.83
2023-01-10T01:33:59.070Z,5.10
2023-01-10T01:36:28.810Z,5.10
2023-01-10T01:38:58.575Z,5.50
2023-01-10T01:41:46.117Z,5.13
2023-01-10T01:44:18.614Z,4.25
2023-01-10T01:47:08.922Z,3.58
2023-01-10T01:49:42.011Z,4.30
2023-01-10T01:52:14.788Z,5.03
2023-01-10T01:54:44.489Z,3.80
2023-01-10T01:57:17.286Z,3.60
2023-01-10T01:59:50.137Z,3.17
2023-01-10T02:02:28.891Z,3.77
2023-01-10T02:05:02.553Z,3.33
2023-01-10T02:07:36.985Z,4.27
2023-01-10T02:10:26.314Z,3.90
2023-01-10T02:12:59.184Z,2.75
2023-01-10T02:15:29.877Z,3.00
2023-01-10T02:20:31.905Z,2.83
2023-01-10T02:23:04.668Z,3.50
2023-01-10T02:26:12.806Z,3.57
2023-01-10T02:29:06.775Z,3.62
2023-01-10T02:31:56.059Z,3.53
2023-01-10T02:34:38.012Z,3.77
2023-01-10T02:37:19.574Z,3.30
2023-01-10T02:42:39.781Z,4.03
2023-01-10T02:45:15.417Z,4.13
2023-01-10T02:47:45.159Z,3.93
2023-01-10T02:50:46.134Z,3.70
2023-01-10T02:53:27.973Z,3.40
2023-01-10T02:56:24.120Z,3.27
2023-01-10T02:59:20.952Z,3.23
2023-01-10T03:02:11.898Z,3.57
2023-01-10T03:04:47.484Z,3.22
2023-01-10T03:07:20.028Z,4.40
2023-01-10T03:10:21.295Z,3.57
2023-01-10T03:12:55.226Z,3.25
2023-01-10T03:15:28.355Z,3.23
2023-01-10T03:18:01.211Z,3.00
2023-01-10T03:20:33.991Z,2.60
2023-01-10T03:23:07.090Z,2.93
2023-01-10T03:25:39.164Z,2.13
2023-01-10T03:28:20.547Z,2.10
2023-01-10T03:31:01.888Z,3.30
2023-01-10T03:33:33.837Z,2.30
2023-01-10T03:36:06.627Z,2.37
2023-01-10T03:38:41.993Z,2.23
2023-01-10T03:41:17.796Z,1.97
2023-01-10T03:44:08.184Z,2.37
2023-01-10T03:46:46.765Z,1.62
2023-01-10T03:49:19.025Z,2.27
2023-01-10T03:51:49.889Z,1.87
2023-01-10T03:54:19.739Z,1.98
2023-01-10T03:56:51.855Z,1.57
2023-01-10T03:59:24.385Z,1.30
2023-01-10T04:01:55.315Z,1.70
2023-01-10T04:04:25.073Z,1.92
2023-01-10T04:06:54.828Z,1.47
2023-01-10T04:09:24.527Z,2.10
2023-01-10T04:11:54.287Z,1.37
2023-01-10T04:14:23.779Z,1.47
2023-01-10T04:16:53.490Z,1.73
2023-01-10T04:19:23.275Z,1.13
2023-01-10T04:21:53.447Z,2.12
2023-01-10T04:24:23.242Z,1.50
2023-01-10T04:26:52.994Z,1.73
2023-01-10T04:29:22.746Z,1.55
2023-01-10T04:31:52.735Z,1.37
2023-01-10T04:34:22.377Z,1.30
2023-01-10T04:36:52.212Z,0.97
2023-01-10T04:39:21.652Z,2.03
2023-01-10T04:41:51.414Z,1.67
2023-01-10T04:44:20.878Z,1.17
2023-01-10T04:46:50.643Z,1.83
2023-01-10T04:49:20.085Z,1.77
2023-01-10T04:51:49.872Z,1.37
2023-01-10T04:54:22.343Z,1.80
2023-01-10T04:56:52.292Z,1.87
2023-01-10T04:59:21.839Z,1.87
2023-01-10T05:01:52.126Z,1.40
2023-01-10T05:04:21.604Z,1.77
2023-01-10T05:06:51.437Z,1.27
2023-01-10T05:09:21.853Z,1.17
2023-01-10T05:11:51.339Z,1.50
2023-01-10T05:14:20.945Z,1.33
2023-01-10T05:16:50.837Z,1.10
2023-01-10T05:19:20.425Z,1.20
2023-01-10T05:21:52.098Z,1.10
2023-01-10T05:24:21.797Z,1.20
2023-01-10T05:26:51.574Z,1.60
2023-01-10T05:29:21.018Z,1.20
2023-01-10T05:31:52.885Z,1.27
2023-01-10T05:34:22.351Z,1.20
2023-01-10T05:36:52.359Z,1.37
2023-01-10T05:39:21.812Z,1.00
2023-01-10T05:41:51.609Z,1.40
2023-01-10T05:44:21.045Z,1.53
2023-01-10T05:46:50.904Z,1.40
2023-01-10T05:49:20.663Z,1.20
2023-01-10T05:51:50.425Z,1.00
2023-01-10T05:54:20.358Z,1.50
2023-01-10T05:56:50.486Z,1.37
2023-01-10T05:59:28.102Z,0.90
2023-01-10T06:01:51.970Z,1.27
2023-01-10T06:04:21.594Z,1.33
2023-01-10T06:06:51.436Z,1.67
2023-01-10T06:09:20.940Z,1.87
2023-01-10T06:11:50.771Z,1.17
2023-01-10T06:14:20.582Z,1.40
2023-01-10T06:16:50.728Z,0.70
2023-01-10T06:19:20.199Z,1.53
2023-01-10T06:21:49.999Z,1.40
2023-01-10T06:24:19.509Z,1.43
2023-01-10T06:26:49.277Z,1.00
2023-01-10T06:29:18.830Z,0.80
2023-01-10T06:31:48.563Z,1.10
2023-01-10T06:34:18.085Z,1.50
2023-01-10T06:36:47.828Z,1.17
2023-01-10T06:39:17.319Z,1.40
2023-01-10T06:41:47.151Z,1.70
2023-01-10T06:44:16.635Z,1.03
2023-01-10T06:46:46.376Z,1.03
2023-01-10T06:49:15.855Z,1.13
2023-01-10T06:51:45.653Z,1.37
2023-01-10T06:54:15.127Z,1.80
2023-01-10T06:56:45.029Z,1.03
2023-01-10T06:59:14.578Z,1.73
2023-01-10T07:01:44.524Z,2.13
2023-01-10T07:04:14.472Z,1.47
2023-01-10T07:06:44.288Z,1.33
2023-01-10T07:09:13.771Z,1.80
2023-01-10T07:11:43.502Z,1.73
2023-01-10T07:14:13.031Z,1.73
2023-01-10T07:16:42.774Z,1.50
2023-01-10T07:19:13.570Z,1.17
2023-01-10T07:21:43.377Z,1.20
2023-01-10T07:24:12.997Z,1.23
2023-01-10T07:26:42.743Z,1.30
2023-01-10T07:29:12.742Z,1.63
2023-01-10T07:31:43.351Z,1.80
2023-01-10T07:34:12.865Z,1.30
2023-01-10T07:36:42.906Z,1.50
2023-01-10T07:39:12.754Z,1.20
2023-01-10T07:41:42.503Z,1.73
2023-01-10T07:44:12.340Z,1.90
2023-01-10T07:46:42.104Z,1.40
2023-01-10T07:49:11.806Z,1.40
2023-01-10T07:51:41.631Z,2.00
2023-01-10T07:54:12.963Z,1.70
2023-01-10T07:56:42.768Z,1.70
2023-01-10T07:59:12.476Z,1.60
2023-01-10T08:01:42.288Z,1.67
2023-01-10T08:04:11.778Z,1.30
2023-01-10T08:06:41.516Z,2.03
2023-01-10T08:09:11.007Z,1.83
2023-01-10T08:11:41.710Z,1.40
2023-01-10T08:14:11.341Z,1.53
2023-01-10T08:16:41.125Z,1.23
2023-01-10T08:19:12.539Z,1.66
2023-01-10T08:21:41.996Z,1.42
2023-01-10T08:24:11.623Z,1.43
2023-01-10T08:26:41.365Z,1.63
2023-01-10T08:29:11.152Z,1.42
2023-01-10T08:31:42.383Z,1.30
2023-01-10T08:34:14.712Z,3.03
2023-01-10T08:36:44.459Z,0.83
2023-01-10T08:39:14.058Z,1.50
2023-01-10T08:41:43.992Z,1.60
2023-01-10T08:44:15.450Z,1.53
2023-01-10T08:46:45.841Z,1.20
2023-01-10T08:49:15.589Z,1.00
2023-01-10T08:51:45.330Z,1.27
2023-01-10T08:54:14.957Z,1.70
2023-01-10T08:56:44.754Z,1.27
2023-01-10T08:59:14.265Z,1.30
2023-01-10T09:01:44.281Z,1.13
2023-01-10T09:04:13.870Z,1.43
2023-01-10T09:06:43.826Z,1.37
2023-01-10T09:09:13.571Z,0.93
2023-01-10T09:11:43.651Z,1.02
2023-01-10T09:14:13.334Z,1.23
2023-01-10T09:16:43.193Z,1.17
2023-01-10T09:19:13.003Z,2.03
2023-01-10T09:21:42.790Z,1.47
2023-01-10T09:24:12.407Z,1.73
2023-01-10T09:26:42.189Z,1.00
2023-01-10T09:29:11.704Z,1.73
2023-01-10T09:31:41.531Z,1.70
2023-01-10T09:34:11.012Z,1.73
2023-01-10T09:36:40.787Z,2.30
2023-01-10T09:39:10.369Z,1.70
2023-01-10T09:42:01.060Z,1.47
2023-01-10T09:44:54.558Z,1.30
2023-01-10T09:47:30.043Z,1.20
2023-01-10T09:50:06.380Z,1.90
2023-01-10T09:52:41.830Z,1.90
2023-01-10T09:55:23.051Z,2.00
2023-01-10T09:57:58.608Z,1.67
2023-01-10T10:00:43.644Z,2.20
2023-01-10T10:03:41.363Z,2.25
2023-01-10T10:06:14.050Z,1.93
2023-01-10T10:08:46.341Z,1.50
2023-01-10T10:11:31.108Z,1.53
2023-01-10T10:14:09.863Z,2.20
2023-01-10T10:16:54.236Z,2.57
2023-01-10T10:19:32.586Z,1.73
2023-01-10T10:22:05.363Z,1.83
2023-01-10T10:24:38.200Z,1.67
2023-01-10T10:27:13.482Z,2.20
2023-01-10T10:30:05.597Z,1.73
2023-01-10T10:32:54.889Z,1.70
2023-01-10T10:35:30.701Z,2.53
2023-01-10T10:38:06.316Z,2.33
2023-01-10T10:40:41.564Z,1.40
2023-01-10T10:43:23.096Z,1.74
2023-01-10T10:46:01.723Z,2.25
2023-01-10T10:48:34.788Z,1.90
2023-01-10T10:51:13.272Z,2.17
2023-01-10T10:53:43.047Z,2.37
2023-01-10T10:56:15.684Z,2.40
2023-01-10T10:58:47.944Z,1.80
2023-01-10T11:01:19.781Z,2.12
2023-01-10T11:04:04.528Z,1.43
2023-01-10T11:06:36.265Z,2.10
2023-01-10T11:09:08.811Z,2.00
2023-01-10T11:11:47.264Z,1.50
2023-01-10T11:14:19.625Z,1.83
2023-01-10T11:16:49.519Z,2.90
2023-01-10T11:19:22.809Z,1.40
2023-01-10T11:21:58.368Z,1.77
2023-01-10T11:24:42.965Z,1.87
2023-01-10T11:27:21.551Z,2.23
2023-01-10T11:29:54.210Z,1.63
2023-01-10T11:32:38.690Z,1.87
2023-01-10T11:35:20.450Z,3.27
2023-01-10T11:38:05.540Z,2.73
2023-01-10T11:40:38.873Z,1.40
2023-01-10T11:43:41.393Z,2.40
2023-01-10T11:46:24.583Z,2.26
2023-01-10T11:49:10.883Z,1.73
2023-01-10T11:51:49.477Z,1.80
2023-01-10T11:54:24.621Z,1.90
2023-01-10T11:57:12.545Z,1.77
2023-01-10T11:59:54.295Z,2.90
2023-01-10T12:02:44.515Z,1.90
2023-01-10T12:05:23.333Z,1.82
2023-01-10T12:08:02.815Z,2.30
2023-01-10T12:10:33.254Z,1.73
2023-01-10T12:13:17.131Z,2.77
2023-01-10T12:15:48.536Z,1.80
2023-01-10T12:18:19.728Z,2.02
2023-01-10T12:20:52.370Z,2.15
2023-01-10T12:23:24.934Z,1.90
2023-01-10T12:26:10.747Z,2.07
2023-01-10T12:28:32.172Z,2.10
2023-01-10T12:31:04.875Z,1.42
2023-01-10T12:33:40.498Z,2.17
2023-01-10T12:36:18.948Z,1.57
2023-01-10T12:39:08.948Z,1.70
2023-01-10T12:42:05.638Z,2.13
2023-01-10T12:47:49.945Z,2.47
2023-01-10T12:50:28.944Z,2.00
2023-01-10T12:53:21.087Z,2.30
2023-01-10T12:55:52.861Z,2.03
2023-01-10T12:58:25.821Z,1.90
2023-01-10T13:00:58.656Z,1.60
2023-01-10T13:03:33.331Z,1.30
2023-01-10T13:06:03.352Z,2.17
2023-01-10T13:08:38.055Z,1.47
2023-01-10T13:11:10.953Z,1.87
2023-01-10T13:13:49.687Z,1.82
2023-01-10T13:16:59.498Z,1.67
2023-01-10T13:19:29.848Z,2.43
2023-01-10T13:22:23.337Z,2.20
2023-01-10T13:25:03.156Z,2.53
2023-01-10T13:27:35.887Z,1.70
2023-01-10T13:30:08.904Z,1.50
2023-01-10T13:32:39.052Z,1.80
2023-01-10T13:35:17.411Z,2.50
2023-01-10T13:37:55.758Z,2.10
2023-01-10T13:40:31.742Z,1.70
2023-01-10T13:43:36.753Z,2.50
2023-01-10T13:46:21.349Z,1.70
2023-01-10T13:48:54.603Z,1.93
2023-01-10T13:51:24.415Z,2.27
2023-01-10T13:54:03.151Z,2.07
2023-01-10T13:56:41.586Z,2.33
2023-01-10T13:59:43.416Z,1.40
2023-01-10T14:02:31.544Z,1.67
2023-01-10T14:05:07.334Z,2.63
2023-01-10T14:07:51.928Z,1.87
2023-01-10T14:10:30.024Z,2.60
2023-01-10T14:13:11.518Z,2.35
2023-01-10T14:15:47.545Z,1.80
2023-01-10T14:18:26.881Z,1.83
2023-01-10T14:21:08.421Z,2.30
2023-01-10T14:23:46.917Z,2.40
2023-01-10T14:26:25.136Z,2.47
2023-01-10T14:28:56.004Z,1.70
2023-01-10T14:31:27.504Z,1.80
2023-01-10T14:34:00.521Z,2.90
2023-01-10T14:36:33.534Z,2.07
2023-01-10T14:39:06.073Z,2.40
2023-01-10T14:41:48.397Z,2.27
2023-01-10T14:44:21.272Z,2.30
2023-01-10T14:46:56.616Z,2.22
2023-01-10T14:49:37.591Z,2.30
2023-01-10T14:52:17.104Z,2.35
2023-01-10T14:54:48.163Z,2.43
2023-01-10T14:57:20.772Z,3.05
2023-01-10T14:59:52.141Z,2.95
2023-01-10T15:02:26.663Z,3.00
2023-01-10T15:05:11.128Z,3.00
2023-01-10T15:07:40.952Z,3.30
2023-01-10T15:10:28.393Z,3.40
2023-01-10T15:13:01.246Z,3.03
2023-01-10T15:15:39.278Z,2.70
2023-01-10T15:18:30.531Z,2.53
2023-01-10T15:21:01.380Z,2.50
2023-01-10T15:23:38.676Z,2.40
2023-01-10T15:26:17.877Z,3.10
2023-01-10T15:28:50.651Z,3.47
2023-01-10T15:31:20.323Z,2.87
2023-01-10T15:33:51.839Z,3.43
2023-01-10T15:36:26.245Z,3.17
2023-01-10T15:38:55.945Z,2.50
2023-01-10T15:41:25.860Z,3.17
2023-01-10T15:43:55.762Z,3.20
2023-01-10T15:46:27.127Z,2.87
2023-01-10T15:49:03.121Z,2.90
2023-01-10T15:51:38.877Z,2.80
2023-01-10T15:54:22.968Z,2.93
2023-01-10T15:57:06.543Z,2.93
2023-01-10T15:59:45.490Z,3.67
2023-01-10T16:02:30.795Z,3.83
2023-01-10T16:05:12.684Z,3.20
2023-01-10T16:07:47.501Z,2.90
2023-01-10T16:10:27.834Z,2.50
2023-01-10T16:13:18.026Z,3.53
2023-01-10T16:15:47.766Z,3.07
2023-01-10T16:18:17.558Z,2.60
2023-01-10T16:20:49.844Z,3.07
2023-01-10T16:23:22.165Z,3.17
2023-01-10T16:25:57.563Z,2.97
2023-01-10T16:28:30.239Z,2.27
2023-01-10T16:30:59.989Z,2.30
2023-01-10T16:33:29.888Z,2.73
2023-01-10T16:36:01.005Z,2.50
2023-01-10T16:38:31.489Z,2.67
2023-01-10T16:41:22.510Z,3.10
2023-01-10T16:43:53.817Z,2.33
2023-01-10T16:46:23.956Z,2.47
2023-01-10T16:48:54.948Z,3.30
2023-01-10T16:51:31.561Z,2.00
2023-01-10T16:54:05.695Z,2.97
2023-01-10T16:56:35.809Z,3.37
2023-01-10T16:59:07.460Z,3.80
2023-01-10T17:01:40.433Z,3.85
2023-01-10T17:04:12.575Z,4.00
2023-01-10T17:06:42.508Z,3.70
2023-01-10T17:09:15.200Z,2.77
2023-01-10T17:11:45.192Z,3.07
2023-01-10T17:14:17.418Z,3.73
2023-01-10T17:16:48.025Z,4.20
2023-01-10T17:19:18.193Z,4.17
2023-01-10T17:21:47.953Z,4.00
2023-01-10T17:24:17.523Z,4.20
2023-01-10T17:26:47.368Z,3.27
2023-01-10T17:29:16.845Z,3.00
2023-01-10T17:31:46.726Z,2.90
2023-01-10T17:34:16.228Z,2.70
2023-01-10T17:36:46.007Z,3.07
2023-01-10T17:39:15.699Z,3.80
2023-01-10T17:41:47.818Z,2.93
2023-01-10T17:44:17.546Z,3.83
2023-01-10T17:46:47.331Z,3.03
2023-01-10T17:49:16.863Z,2.13
2023-01-10T17:51:46.645Z,2.77
2023-01-10T17:54:16.361Z,2.63
2023-01-10T17:56:46.172Z,3.43
2023-01-10T17:59:15.796Z,3.23
2023-01-10T18:01:45.779Z,2.40
2023-01-10T18:04:15.627Z,2.90
2023-01-10T18:06:45.598Z,3.23
2023-01-10T18:09:15.059Z,2.27
2023-01-10T18:11:45.050Z,3.17
2023-01-10T18:14:32.763Z,2.73
2023-01-10T18:17:02.673Z,2.53
2023-01-10T18:19:32.802Z,2.43
2023-01-10T18:22:05.323Z,1.93
2023-01-10T18:24:35.092Z,2.13
2023-01-10T18:27:06.116Z,2.33
2023-01-10T18:29:35.875Z,2.10
2023-01-10T18:32:06.489Z,2.43
2023-01-10T18:34:36.249Z,2.73
2023-01-10T18:37:06.717Z,1.80
2023-01-10T18:39:36.554Z,2.83
2023-01-10T18:42:06.639Z,3.57
2023-01-10T18:44:36.467Z,2.60
2023-01-10T18:47:09.715Z,2.53
2023-01-10T18:49:39.863Z,2.83
2023-01-10T18:52:09.418Z,2.27
2023-01-10T18:54:39.188Z,2.23
2023-01-10T18:57:10.416Z,2.67
2023-01-10T18:59:42.654Z,2.90
2023-01-10T19:02:15.875Z,1.90
2023-01-10T19:04:45.991Z,3.25
2023-01-10T19:07:15.773Z,2.25
2023-01-10T19:09:45.526Z,3.00
2023-01-10T19:12:15.280Z,2.20
2023-01-10T19:14:45.028Z,2.13
2023-01-10T19:17:14.837Z,2.53
2023-01-10T19:19:44.750Z,2.70
2023-01-10T19:22:15.522Z,2.70
2023-01-10T19:24:45.353Z,3.20
2023-01-10T19:27:15.171Z,2.85
2023-01-10T19:29:46.738Z,2.93
2023-01-10T19:32:16.914Z,4.17
2023-01-10T19:34:46.660Z,3.57
2023-01-10T19:37:16.155Z,3.10
2023-01-10T19:39:46.000Z,2.87
2023-01-10T19:42:15.434Z,2.73
2023-01-10T19:44:45.563Z,2.40
2023-01-10T19:47:15.717Z,3.30
2023-01-10T19:49:45.592Z,2.43
2023-01-10T19:52:15.049Z,3.47
2023-01-10T19:54:44.832Z,3.13
2023-01-10T19:57:14.295Z,3.00
2023-01-10T19:59:45.341Z,3.43
2023-01-10T20:02:15.077Z,3.42
2023-01-10T20:04:45.840Z,3.70
2023-01-10T20:07:17.436Z,3.52
2023-01-10T20:12:15.690Z,3.40
2023-01-10T20:14:45.483Z,3.90
2023-01-10T20:17:14.970Z,3.40
2023-01-10T20:19:44.722Z,3.60
2023-01-10T20:22:15.917Z,3.43
2023-01-10T20:24:45.668Z,3.30
2023-01-10T20:27:15.505Z,2.80
2023-01-10T20:29:45.693Z,3.00
2023-01-10T20:32:15.246Z,3.13
2023-01-10T20:34:46.354Z,3.40
2023-01-10T20:37:16.146Z,2.85
2023-01-10T20:39:46.898Z,3.53
2023-01-10T20:42:16.922Z,3.45
2023-01-10T20:44:46.673Z,3.70
2023-01-10T20:47:17.242Z,4.00
2023-01-10T20:49:47.050Z,3.45
2023-01-10T20:52:16.530Z,3.40
2023-01-10T20:54:46.274Z,3.87
2023-01-10T20:57:15.939Z,4.10
2023-01-10T20:59:47.362Z,3.80
2023-01-10T21:02:17.317Z,4.70
2023-01-10T21:04:49.691Z,3.47
2023-01-10T21:07:18.672Z,3.77
2023-01-10T21:09:48.489Z,4.37
2023-01-10T21:12:23.216Z,4.03
2023-01-10T21:14:49.488Z,5.30
2023-01-10T21:17:18.987Z,4.63
2023-01-10T21:19:48.717Z,4.20
2023-01-10T21:22:18.398Z,4.90
2023-01-10T21:24:48.505Z,6.47
2023-01-10T21:27:18.285Z,4.95
2023-01-10T21:29:48.027Z,5.77
2023-01-10T21:32:17.586Z,5.03
2023-01-10T21:34:47.356Z,5.33
2023-01-10T21:37:17.046Z,5.53
2023-01-10T21:39:46.793Z,5.10
2023-01-10T21:42:38.090Z,5.97
2023-01-10T21:45:08.544Z,5.07
2023-01-10T21:47:38.754Z,4.00
2023-01-10T21:50:10.722Z,5.20
2023-01-10T21:52:42.295Z,5.30
2023-01-10T21:55:14.689Z,4.67
2023-01-10T21:57:44.524Z,5.27
2023-01-10T22:00:14.715Z,5.33
2023-01-10T22:02:44.485Z,4.30
2023-01-10T22:05:14.509Z,5.03
2023-01-10T22:07:45.893Z,4.53
2023-01-10T22:10:15.716Z,5.15
2023-01-10T22:12:45.776Z,4.65
2023-01-10T22:15:15.471Z,4.47
2023-01-10T22:17:45.241Z,5.00
2023-01-10T22:20:16.645Z,4.73
2023-01-10T22:22:46.423Z,4.37
2023-01-10T22:25:15.956Z,4.10
2023-01-10T22:27:45.840Z,5.03
2023-01-10T22:30:15.745Z,4.95
2023-01-10T22:32:45.649Z,4.37
2023-01-10T22:35:15.175Z,5.47
2023-01-10T22:37:44.940Z,5.30
2023-01-10T22:40:14.560Z,4.87
2023-01-10T22:42:44.335Z,5.30
2023-01-10T22:45:14.174Z,5.05
2023-01-10T22:47:43.947Z,5.30
2023-01-10T22:50:13.459Z,4.37
2023-01-10T22:52:43.215Z,4.90
2023-01-10T22:55:12.969Z,5.20
2023-01-10T22:57:47.173Z,4.70
2023-01-10T23:00:15.068Z,4.42
2023-01-10T23:02:45.186Z,5.58
2023-01-10T23:05:14.889Z,4.87
2023-01-10T23:07:44.649Z,4.77
2023-01-10T23:10:28.739Z,4.83
2023-01-10T23:12:45.864Z,4.47
2023-01-10T23:15:15.497Z,4.50
2023-01-10T23:17:45.253Z,4.83
2023-01-10T23:20:14.843Z,4.53
2023-01-10T23:22:44.588Z,6.13
2023-01-10T23:25:14.333Z,5.47
2023-01-10T23:27:44.167Z,4.83
2023-01-10T23:30:13.774Z,6.00
2023-01-10T23:32:43.835Z,4.60
2023-01-10T23:35:13.375Z,4.13
2023-01-10T23:37:43.201Z,3.67
2023-01-10T23:40:13.324Z,5.03
2023-01-10T23:42:43.110Z,5.97
2023-01-10T23:45:13.043Z,5.10
2023-01-10T23:47:42.812Z,4.37
2023-01-10T23:50:12.716Z,4.67
2023-01-10T23:52:42.472Z,4.67
2023-01-10T23:55:11.945Z,5.17
2023-01-10T23:57:41.790Z,6.23
